createdAt,value
2022-10-20T00:01:01.996Z,19.11
2022-10-20T00:03:29.327Z,19.15
2022-10-20T00:06:06.695Z,19.19
2022-10-20T00:08:33.277Z,18.99
2022-10-20T00:10:59.866Z,19.16
2022-10-20T00:13:26.418Z,19.06
2022-10-20T00:15:55.172Z,19.03
2022-10-20T00:18:23.092Z,19.09
2022-10-20T00:20:49.987Z,19.02
2022-10-20T00:23:16.527Z,19.13
2022-10-20T00:25:43.083Z,19.04
2022-10-20T00:28:09.629Z,19.05
2022-10-20T00:30:36.729Z,18.93
2022-10-20T00:33:04.400Z,19.02
2022-10-20T00:35:32.543Z,18.99
2022-10-20T00:37:59.124Z,18.95
2022-10-20T00:40:26.216Z,18.92
2022-10-20T00:42:52.795Z,18.91
2022-10-20T00:45:21.403Z,18.88
2022-10-20T00:47:50.647Z,19.00
2022-10-20T00:50:32.898Z,19.00
2022-10-20T00:52:59.715Z,18.80
2022-10-20T00:55:28.633Z,18.93
2022-10-20T00:57:57.258Z,18.79
2022-10-20T01:00:24.504Z,18.87
2022-10-20T01:02:51.712Z,18.84
2022-10-20T01:05:18.848Z,18.89
2022-10-20T01:07:45.372Z,18.82
2022-10-20T01:10:12.464Z,18.82
2022-10-20T01:12:48.424Z,18.91
2022-10-20T01:18:01.023Z,18.83
2022-10-20T01:20:45.977Z,18.83
2022-10-20T01:24:09.119Z,18.84
2022-10-20T01:26:55.864Z,18.76
2022-10-20T01:29:25.322Z,18.80
2022-10-20T01:32:15.308Z,18.76
2022-10-20T01:34:50.682Z,18.83
2022-10-20T01:37:48.818Z,18.74
2022-10-20T01:40:21.585Z,18.76
2022-10-20T01:42:49.392Z,18.72
2022-10-20T01:45:18.768Z,18.76
2022-10-20T01:47:46.145Z,18.58
2022-10-20T01:50:13.546Z,18.56
2022-10-20T01:52:40.096Z,18.70
2022-10-20T01:55:13.259Z,18.73
2022-10-20T01:58:04.231Z,18.65
2022-10-20T02:00:30.934Z,18.71
2022-10-20T02:03:28.547Z,18.73
2022-10-20T02:06:21.268Z,18.69
2022-10-20T02:08:50.465Z,18.69
2022-10-20T02:11:24.788Z,18.69
2022-10-20T02:13:52.904Z,18.51
2022-10-20T02:16:43.274Z,18.57
2022-10-20T02:19:10.657Z,18.61
2022-10-20T02:21:37.267Z,18.52
2022-10-20T02:24:06.781Z,18.54
2022-10-20T02:26:34.264Z,18.60
2022-10-20T02:29:04.120Z,18.58
2022-10-20T02:31:31.240Z,18.51
2022-10-20T02:33:58.001Z,18.48
2022-10-20T02:36:29.384Z,18.59
2022-10-20T02:38:56.668Z,18.50
2022-10-20T02:41:23.203Z,18.44
2022-10-20T02:43:49.743Z,18.58
2022-10-20T02:46:17.360Z,18.48
2022-10-20T02:48:44.306Z,18.51
2022-10-20T02:51:10.908Z,18.53
2022-10-20T02:53:37.995Z,18.44
2022-10-20T02:56:04.726Z,18.43
2022-10-20T02:58:31.328Z,18.42
2022-10-20T03:00:57.924Z,18.50
2022-10-20T03:03:24.452Z,18.38
2022-10-20T03:05:51.064Z,18.48
2022-10-20T03:08:17.636Z,18.35
2022-10-20T03:10:44.293Z,18.35
2022-10-20T03:13:11.081Z,18.44
2022-10-20T03:15:38.314Z,18.48
2022-10-20T03:18:04.881Z,18.38
2022-10-20T03:20:31.788Z,18.32
2022-10-20T03:22:58.349Z,18.35
2022-10-20T03:25:24.968Z,18.34
2022-10-20T03:27:51.538Z,18.32
2022-10-20T03:30:18.304Z,18.37
2022-10-20T03:32:44.827Z,18.32
2022-10-20T03:35:11.377Z,18.43
2022-10-20T03:37:37.973Z,18.37
2022-10-20T03:40:04.960Z,18.31
2022-10-20T03:42:31.501Z,18.27
2022-10-20T03:44:58.052Z,18.31
2022-10-20T03:47:24.584Z,18.29
2022-10-20T03:49:51.109Z,18.28
2022-10-20T03:52:17.690Z,18.31
2022-10-20T03:54:44.229Z,18.27
2022-10-20T03:57:10.871Z,18.25
2022-10-20T03:59:37.449Z,18.26
2022-10-20T04:02:04.064Z,18.24
2022-10-20T04:04:30.650Z,18.23
2022-10-20T04:06:57.197Z,18.28
2022-10-20T04:09:23.729Z,18.32
2022-10-20T04:11:50.243Z,18.24
2022-10-20T04:14:16.828Z,18.20
2022-10-20T04:16:43.349Z,18.18
2022-10-20T04:19:09.916Z,18.21
2022-10-20T04:21:36.462Z,18.20
2022-10-20T04:24:03.091Z,18.13
2022-10-20T04:26:29.627Z,18.18
2022-10-20T04:28:57.272Z,18.05
2022-10-20T04:31:23.828Z,18.18
2022-10-20T04:33:50.368Z,18.12
2022-10-20T04:36:16.949Z,18.17
2022-10-20T04:38:43.471Z,18.18
2022-10-20T04:41:10.060Z,18.11
2022-10-20T04:43:36.593Z,18.14
2022-10-20T04:46:07.274Z,18.06
2022-10-20T04:48:35.367Z,18.11
2022-10-20T04:51:07.129Z,18.09
2022-10-20T04:53:34.037Z,18.13
2022-10-20T04:56:01.332Z,18.07
2022-10-20T04:58:28.007Z,18.05
2022-10-20T05:00:55.189Z,17.99
2022-10-20T05:03:21.821Z,18.03
2022-10-20T05:05:48.562Z,18.07
2022-10-20T05:08:15.361Z,18.03
2022-10-20T05:10:41.948Z,18.08
2022-10-20T05:13:08.487Z,18.06
2022-10-20T05:15:35.026Z,18.09
2022-10-20T05:18:01.579Z,18.11
2022-10-20T05:20:30.958Z,18.05
2022-10-20T05:23:00.055Z,18.02
2022-10-20T05:25:42.037Z,18.02
2022-10-20T05:28:08.685Z,17.90
2022-10-20T05:30:35.999Z,18.03
2022-10-20T05:33:02.545Z,18.02
2022-10-20T05:35:29.864Z,17.95
2022-10-20T05:37:56.837Z,17.83
2022-10-20T05:40:24.249Z,17.95
2022-10-20T05:42:50.901Z,17.90
2022-10-20T05:45:17.667Z,17.99
2022-10-20T05:47:44.201Z,18.03
2022-10-20T05:50:11.256Z,17.92
2022-10-20T05:52:38.276Z,17.94
2022-10-20T05:55:05.492Z,17.95
2022-10-20T05:57:32.451Z,17.89
2022-10-20T05:59:59.019Z,17.91
2022-10-20T06:02:25.557Z,17.89
2022-10-20T06:04:52.113Z,17.86
2022-10-20T06:07:18.763Z,17.80
2022-10-20T06:09:45.319Z,17.83
2022-10-20T06:12:11.883Z,17.85
2022-10-20T06:14:38.447Z,17.80
2022-10-20T06:17:05.037Z,17.87
2022-10-20T06:19:31.620Z,17.78
2022-10-20T06:22:02.413Z,17.75
2022-10-20T06:24:33.286Z,17.74
2022-10-20T06:26:59.808Z,17.78
2022-10-20T06:29:26.382Z,17.73
2022-10-20T06:31:55.048Z,17.73
2022-10-20T06:34:23.929Z,17.70
2022-10-20T06:36:50.677Z,17.72
2022-10-20T06:39:22.711Z,17.63
2022-10-20T06:41:51.083Z,17.76
2022-10-20T06:44:18.167Z,17.71
2022-10-20T06:46:44.786Z,17.74
2022-10-20T06:49:11.843Z,17.75
2022-10-20T06:51:38.799Z,17.69
2022-10-20T06:54:05.747Z,17.74
2022-10-20T06:56:34.284Z,17.79
2022-10-20T06:59:01.631Z,17.78
2022-10-20T07:01:33.170Z,17.78
2022-10-20T07:04:02.224Z,17.85
2022-10-20T07:06:40.216Z,17.95
2022-10-20T07:09:08.730Z,17.97
2022-10-20T07:11:35.698Z,17.94
2022-10-20T07:14:03.050Z,18.01
2022-10-20T07:16:32.250Z,17.95
2022-10-20T07:18:58.827Z,18.06
2022-10-20T07:21:30.828Z,18.09
2022-10-20T07:24:01.905Z,18.11
2022-10-20T07:26:30.523Z,18.12
2022-10-20T07:28:58.818Z,18.17
2022-10-20T07:31:36.788Z,18.20
2022-10-20T07:34:20.334Z,18.21
2022-10-20T07:36:50.929Z,18.20
2022-10-20T07:39:17.488Z,18.20
2022-10-20T07:41:45.628Z,18.23
2022-10-20T07:44:12.173Z,18.27
2022-10-20T07:46:38.737Z,18.30
2022-10-20T07:51:52.034Z,18.32
2022-10-20T07:54:18.559Z,18.25
2022-10-20T07:56:46.312Z,18.27
2022-10-20T07:59:12.966Z,18.26
2022-10-20T08:01:39.585Z,18.32
2022-10-20T08:04:06.184Z,18.33
2022-10-20T08:06:32.724Z,18.33
2022-10-20T08:09:00.304Z,18.30
2022-10-20T08:11:27.182Z,18.35
2022-10-20T08:13:53.728Z,18.37
2022-10-20T08:16:25.104Z,18.38
2022-10-20T08:19:13.353Z,18.38
2022-10-20T08:21:39.891Z,18.37
2022-10-20T08:24:06.444Z,18.37
2022-10-20T08:26:32.979Z,18.36
2022-10-20T08:28:59.649Z,18.29
2022-10-20T08:31:26.185Z,18.39
2022-10-20T08:33:53.326Z,18.34
2022-10-20T08:36:20.998Z,18.36
2022-10-20T08:38:47.587Z,18.32
2022-10-20T08:41:21.130Z,18.31
2022-10-20T08:43:49.565Z,18.37
2022-10-20T08:48:47.260Z,18.41
2022-10-20T08:51:20.028Z,18.41
2022-10-20T08:53:48.243Z,18.48
2022-10-20T08:56:15.385Z,18.53
2022-10-20T08:58:45.457Z,18.39
2022-10-20T09:01:35.080Z,18.49
2022-10-20T09:04:12.256Z,18.48
2022-10-20T09:06:42.001Z,18.44
2022-10-20T09:09:13.455Z,18.49
2022-10-20T09:11:44.330Z,18.50
2022-10-20T09:14:12.010Z,18.55
2022-10-20T09:16:55.410Z,18.47
2022-10-20T09:19:27.172Z,18.49
2022-10-20T09:21:59.687Z,18.55
2022-10-20T09:24:30.171Z,18.57
2022-10-20T09:26:59.548Z,18.67
2022-10-20T09:29:37.859Z,18.72
2022-10-20T09:32:46.497Z,18.74
2022-10-20T09:35:25.135Z,18.75
2022-10-20T09:38:19.020Z,18.67
2022-10-20T09:41:21.452Z,18.77
2022-10-20T09:43:54.364Z,18.75
2022-10-20T09:46:26.247Z,18.72
2022-10-20T09:48:53.357Z,18.81
2022-10-20T09:51:23.144Z,18.89
2022-10-20T09:53:58.690Z,19.03
2022-10-20T09:56:33.728Z,18.93
2022-10-20T09:59:01.820Z,18.96
2022-10-20T10:01:28.474Z,18.86
2022-10-20T10:03:59.860Z,18.87
2022-10-20T10:06:31.447Z,18.91
2022-10-20T10:09:00.493Z,18.87
2022-10-20T10:11:32.372Z,18.86
2022-10-20T10:13:58.962Z,18.80
2022-10-20T10:16:25.611Z,18.86
2022-10-20T10:19:01.931Z,18.91
2022-10-20T10:21:44.698Z,18.89
2022-10-20T10:24:36.217Z,18.80
2022-10-20T10:27:03.264Z,18.68
2022-10-20T10:29:36.407Z,18.87
2022-10-20T10:32:14.657Z,18.72
2022-10-20T10:34:54.774Z,18.79
2022-10-20T10:39:52.872Z,18.84
2022-10-20T10:42:47.452Z,18.86
2022-10-20T10:45:34.185Z,18.72
2022-10-20T10:48:06.333Z,18.80
2022-10-20T10:50:38.911Z,18.87
2022-10-20T10:53:30.297Z,18.86
2022-10-20T10:56:17.941Z,18.96
2022-10-20T10:59:06.249Z,18.99
2022-10-20T11:01:41.569Z,19.03
2022-10-20T11:04:08.044Z,19.04
2022-10-20T11:06:45.039Z,19.14
2022-10-20T11:09:33.441Z,19.06
2022-10-20T11:12:18.307Z,19.19
2022-10-20T11:15:12.868Z,19.22
2022-10-20T11:17:50.881Z,19.24
2022-10-20T11:20:24.864Z,19.15
2022-10-20T11:23:00.489Z,19.21
2022-10-20T11:25:34.331Z,19.21
2022-10-20T11:28:00.937Z,19.20
2022-10-20T11:30:27.719Z,19.15
2022-10-20T11:32:58.812Z,19.23
2022-10-20T11:35:48.438Z,19.23
2022-10-20T11:38:32.422Z,19.18
2022-10-20T11:41:06.336Z,19.24
2022-10-20T11:43:39.255Z,19.20
2022-10-20T11:46:12.754Z,19.17
2022-10-20T11:48:52.105Z,19.18
2022-10-20T11:51:30.960Z,19.15
2022-10-20T11:54:38.987Z,19.18
2022-10-20T11:57:29.545Z,19.20
2022-10-20T11:59:58.981Z,19.26
2022-10-20T12:02:50.348Z,19.25
2022-10-20T12:05:38.327Z,19.29
2022-10-20T12:08:30.193Z,19.20
2022-10-20T12:10:57.169Z,19.14
2022-10-20T12:13:35.567Z,19.23
2022-10-20T12:16:02.340Z,19.21
2022-10-20T12:18:29.971Z,19.14
2022-10-20T12:21:00.027Z,19.21
2022-10-20T12:23:45.427Z,19.23
2022-10-20T12:26:30.093Z,19.20
2022-10-20T12:28:57.605Z,19.11
2022-10-20T12:31:25.696Z,19.21
2022-10-20T12:33:53.395Z,19.25
2022-10-20T12:36:19.879Z,19.16
2022-10-20T12:38:49.839Z,19.23
2022-10-20T12:41:34.175Z,19.26
2022-10-20T12:44:05.110Z,19.23
2022-10-20T12:46:33.542Z,19.23
2022-10-20T12:49:10.980Z,19.25
2022-10-20T12:51:41.456Z,19.20
2022-10-20T12:54:24.854Z,19.17
2022-10-20T12:56:52.671Z,19.21
2022-10-20T12:59:39.064Z,19.23
2022-10-20T13:02:08.521Z,19.13
2022-10-20T13:05:03.051Z,19.20
2022-10-20T13:07:52.524Z,19.21
2022-10-20T13:10:39.405Z,19.18
2022-10-20T13:13:05.876Z,19.20
2022-10-20T13:15:38.866Z,19.23
2022-10-20T13:18:11.640Z,19.30
2022-10-20T13:20:56.362Z,19.24
2022-10-20T13:23:26.981Z,19.23
2022-10-20T13:25:55.683Z,19.22
2022-10-20T13:28:24.414Z,19.20
2022-10-20T13:31:27.925Z,19.25
2022-10-20T13:34:27.228Z,19.25
2022-10-20T13:37:09.531Z,19.22
2022-10-20T13:39:36.004Z,19.21
2022-10-20T13:42:14.657Z,19.24
2022-10-20T13:45:05.291Z,19.24
2022-10-20T13:47:59.599Z,19.21
2022-10-20T13:50:35.981Z,19.30
2022-10-20T13:53:09.373Z,19.20
2022-10-20T13:55:54.567Z,19.29
2022-10-20T13:58:23.036Z,19.22
2022-10-20T14:01:25.123Z,19.22
2022-10-20T14:03:51.865Z,19.21
2022-10-20T14:06:27.184Z,19.26
2022-10-20T14:08:54.978Z,19.23
2022-10-20T14:11:21.874Z,19.26
2022-10-20T14:13:48.718Z,19.26
2022-10-20T14:16:27.227Z,19.23
2022-10-20T14:19:06.343Z,19.24
2022-10-20T14:21:49.371Z,19.31
2022-10-20T14:24:37.783Z,19.23
2022-10-20T14:27:05.236Z,19.26
2022-10-20T14:29:35.066Z,19.28
2022-10-20T14:32:01.677Z,19.20
2022-10-20T14:34:31.217Z,19.30
2022-10-20T14:36:58.205Z,19.30
2022-10-20T14:39:39.173Z,19.29
2022-10-20T14:42:22.876Z,19.29
2022-10-20T14:44:49.616Z,19.30
2022-10-20T14:47:16.765Z,19.24
2022-10-20T14:49:43.640Z,19.32
2022-10-20T14:52:21.686Z,19.29
2022-10-20T14:54:52.828Z,19.23
2022-10-20T14:57:19.390Z,19.25
2022-10-20T14:59:56.305Z,19.32
2022-10-20T15:02:24.939Z,19.30
2022-10-20T15:04:54.389Z,19.28
2022-10-20T15:07:27.721Z,19.36
2022-10-20T15:10:04.344Z,19.29
2022-10-20T15:12:32.673Z,19.33
2022-10-20T15:15:07.669Z,19.33
2022-10-20T15:17:46.427Z,19.31
2022-10-20T15:20:34.291Z,19.34
2022-10-20T15:23:02.091Z,19.35
2022-10-20T15:25:31.131Z,19.33
2022-10-20T15:27:58.529Z,19.28
2022-10-20T15:30:26.221Z,19.35
2022-10-20T15:32:54.323Z,19.34
2022-10-20T15:35:23.857Z,19.32
2022-10-20T15:37:52.498Z,19.32
2022-10-20T15:40:19.892Z,19.32
2022-10-20T15:42:46.809Z,19.42
2022-10-20T15:45:24.760Z,19.39
2022-10-20T15:47:51.308Z,19.37
2022-10-20T15:50:21.630Z,19.38
2022-10-20T15:52:50.725Z,19.29
2022-10-20T15:55:22.731Z,19.28
2022-10-20T15:57:50.907Z,19.24
2022-10-20T16:00:18.943Z,19.33
2022-10-20T16:02:45.773Z,19.29
2022-10-20T16:05:12.828Z,19.31
2022-10-20T16:07:39.794Z,19.24
2022-10-20T16:10:08.237Z,19.28
2022-10-20T16:12:35.201Z,19.24
2022-10-20T16:15:02.191Z,19.30
2022-10-20T16:17:28.750Z,19.31
2022-10-20T16:19:55.444Z,19.29
2022-10-20T16:22:22.100Z,19.30
2022-10-20T16:24:48.793Z,19.38
2022-10-20T16:27:15.859Z,19.28
2022-10-20T16:29:45.105Z,19.33
2022-10-20T16:32:14.146Z,19.31
2022-10-20T16:34:40.680Z,19.39
2022-10-20T16:37:07.229Z,19.39
2022-10-20T16:39:33.749Z,19.46
2022-10-20T16:42:00.274Z,19.37
2022-10-20T16:44:26.863Z,19.44
2022-10-20T16:46:53.415Z,19.40
2022-10-20T16:49:19.977Z,19.37
2022-10-20T16:51:46.530Z,19.45
2022-10-20T16:54:13.084Z,19.37
2022-10-20T16:56:39.620Z,19.38
2022-10-20T16:59:06.219Z,19.39
2022-10-20T17:01:32.866Z,19.40
2022-10-20T17:03:59.514Z,19.36
2022-10-20T17:06:26.678Z,19.39
2022-10-20T17:08:53.815Z,19.42
2022-10-20T17:11:23.108Z,19.36
2022-10-20T17:13:49.676Z,19.44
2022-10-20T17:16:27.645Z,19.37
2022-10-20T17:18:56.424Z,19.40
2022-10-20T17:21:23.001Z,19.42
2022-10-20T17:23:49.560Z,19.42
2022-10-20T17:26:19.368Z,19.31
2022-10-20T17:28:45.988Z,19.44
2022-10-20T17:31:18.070Z,19.39
2022-10-20T17:33:45.175Z,19.43
2022-10-20T17:36:12.804Z,19.39
2022-10-20T17:38:41.268Z,19.40
2022-10-20T17:41:15.680Z,19.37
2022-10-20T17:43:42.434Z,19.45
2022-10-20T17:46:11.876Z,19.43
2022-10-20T17:48:39.365Z,19.46
2022-10-20T17:51:15.167Z,19.49
2022-10-20T17:53:45.364Z,19.37
2022-10-20T17:56:20.232Z,19.42
2022-10-20T17:58:48.303Z,19.44
2022-10-20T18:01:19.088Z,19.45
2022-10-20T18:03:47.120Z,19.47
2022-10-20T18:06:21.836Z,19.43
2022-10-20T18:08:48.690Z,19.43
2022-10-20T18:11:18.382Z,19.37
2022-10-20T18:13:45.617Z,19.43
2022-10-20T18:16:16.852Z,19.39
2022-10-20T18:18:43.651Z,19.33
2022-10-20T18:21:11.842Z,19.36
2022-10-20T18:23:40.388Z,19.36
2022-10-20T18:26:07.683Z,19.37
2022-10-20T18:28:35.258Z,19.38
2022-10-20T18:31:11.047Z,19.45
2022-10-20T18:33:37.701Z,19.40
2022-10-20T18:36:08.594Z,19.39
2022-10-20T18:38:36.587Z,19.36
2022-10-20T18:41:07.684Z,19.49
2022-10-20T18:43:34.417Z,19.47
2022-10-20T18:46:02.086Z,19.51
2022-10-20T18:48:29.074Z,19.40
2022-10-20T18:50:57.021Z,19.37
2022-10-20T18:53:23.887Z,19.39
2022-10-20T18:56:18.663Z,19.48
2022-10-20T18:58:53.935Z,19.42
2022-10-20T19:01:23.914Z,19.35
2022-10-20T19:03:53.151Z,19.34
2022-10-20T19:06:28.754Z,19.47
2022-10-20T19:08:57.122Z,19.42
2022-10-20T19:11:25.443Z,19.37
2022-10-20T19:13:52.374Z,19.38
2022-10-20T19:16:22.157Z,19.37
2022-10-20T19:18:50.435Z,19.40
2022-10-20T19:21:17.881Z,19.43
2022-10-20T19:23:47.536Z,19.40
2022-10-20T19:26:22.115Z,19.36
2022-10-20T19:28:56.050Z,19.37
2022-10-20T19:31:33.545Z,19.39
2022-10-20T19:34:09.694Z,19.42
2022-10-20T19:36:36.441Z,19.39
2022-10-20T19:39:05.460Z,19.35
2022-10-20T19:41:32.014Z,19.37
2022-10-20T19:43:58.745Z,19.35
2022-10-20T19:46:25.316Z,19.40
2022-10-20T19:48:51.892Z,19.43
2022-10-20T19:51:19.777Z,19.32
2022-10-20T19:53:47.248Z,19.36
2022-10-20T19:56:13.932Z,19.37
2022-10-20T19:58:44.138Z,19.31
2022-10-20T20:01:13.086Z,19.40
2022-10-20T20:03:39.692Z,19.42
2022-10-20T20:06:11.977Z,19.36
2022-10-20T20:08:38.593Z,19.38
2022-10-20T20:11:05.539Z,19.37
2022-10-20T20:13:32.467Z,19.33
2022-10-20T20:16:07.047Z,19.35
2022-10-20T20:18:37.557Z,19.39
2022-10-20T20:21:05.343Z,19.35
2022-10-20T20:23:41.280Z,19.39
2022-10-20T20:26:20.781Z,19.33
2022-10-20T20:28:47.327Z,19.36
2022-10-20T20:31:13.889Z,19.37
2022-10-20T20:33:40.469Z,19.36
2022-10-20T20:36:08.569Z,19.33
2022-10-20T20:38:37.622Z,19.31
2022-10-20T20:41:06.729Z,19.33
2022-10-20T20:43:34.808Z,19.36
2022-10-20T20:46:16.113Z,19.31
2022-10-20T20:48:43.006Z,19.31
2022-10-20T20:51:09.544Z,19.27
2022-10-20T20:53:36.774Z,19.31
2022-10-20T20:56:11.336Z,19.35
2022-10-20T20:58:38.593Z,19.32
2022-10-20T21:01:14.000Z,19.28
2022-10-20T21:03:40.916Z,19.24
2022-10-20T21:06:13.557Z,19.32
2022-10-20T21:08:41.701Z,19.25
2022-10-20T21:11:13.589Z,19.23
2022-10-20T21:13:41.088Z,19.22
2022-10-20T21:16:17.531Z,19.19
2022-10-20T21:18:46.929Z,19.25
2022-10-20T21:21:15.765Z,19.18
2022-10-20T21:23:42.551Z,19.26
2022-10-20T21:26:10.305Z,19.15
2022-10-20T21:28:37.309Z,19.26
2022-10-20T21:31:08.109Z,19.14
2022-10-20T21:33:35.590Z,19.18
2022-10-20T21:36:06.585Z,19.15
2022-10-20T21:38:34.329Z,19.18
2022-10-20T21:41:24.753Z,19.16
2022-10-20T21:43:53.545Z,19.21
2022-10-20T21:46:24.347Z,19.16
2022-10-20T21:48:52.865Z,19.19
2022-10-20T21:51:25.315Z,19.15
2022-10-20T21:53:56.545Z,19.19
2022-10-20T21:56:23.682Z,19.15
2022-10-20T21:58:50.467Z,19.14
2022-10-20T22:01:22.457Z,19.14
2022-10-20T22:03:51.348Z,19.15
2022-10-20T22:06:19.843Z,19.12
2022-10-20T22:08:48.579Z,19.15
2022-10-20T22:11:18.545Z,19.09
2022-10-20T22:13:45.988Z,19.07
2022-10-20T22:16:14.915Z,19.14
2022-10-20T22:18:41.557Z,19.05
2022-10-20T22:21:13.839Z,19.12
2022-10-20T22:23:41.158Z,19.04
2022-10-20T22:26:08.301Z,19.07
2022-10-20T22:28:35.116Z,19.02
2022-10-20T22:33:33.304Z,18.94
2022-10-20T22:35:59.946Z,19.01
2022-10-20T22:38:26.475Z,18.92
2022-10-20T22:40:53.009Z,18.99
2022-10-20T22:43:19.532Z,18.97
2022-10-20T22:45:46.070Z,19.09
2022-10-20T22:48:12.650Z,18.99
2022-10-20T22:50:39.680Z,19.00
2022-10-20T22:53:06.263Z,19.01
2022-10-20T22:55:32.801Z,18.94
2022-10-20T23:00:31.106Z,19.04
2022-10-20T23:02:57.923Z,18.99
2022-10-20T23:05:24.462Z,18.90
2022-10-20T23:07:51.012Z,18.86
2022-10-20T23:10:17.618Z,18.95
2022-10-20T23:12:44.215Z,18.90
2022-10-20T23:15:10.860Z,18.92
2022-10-20T23:17:37.818Z,18.95
2022-10-20T23:20:05.777Z,18.86
2022-10-20T23:22:32.301Z,18.97
2022-10-20T23:24:58.837Z,18.95
2022-10-20T23:27:25.472Z,18.91
2022-10-20T23:29:52.018Z,18.88
2022-10-20T23:32:18.826Z,18.85
2022-10-20T23:34:45.361Z,18.87
2022-10-20T23:37:11.914Z,18.88
2022-10-20T23:39:38.440Z,18.93
2022-10-20T23:42:07.473Z,18.96
2022-10-20T23:44:34.296Z,18.90
2022-10-20T23:47:00.862Z,18.86
2022-10-20T23:49:27.466Z,18.87
2022-10-20T23:51:54.016Z,18.89
2022-10-20T23:54:20.649Z,18.85
2022-10-20T23:56:47.492Z,18.91
2022-10-20T23:59:14.153Z,18.81
